Time;durP1;ratioP1;P1;durP2;ratioP2;P2;SDS_P1;SDS_P2;PMS_P1;PMS_P2;Temp;Humidity;BMP_temperature;BMP_pressure;BME280_temperature;BME280_humidity;BME280_pressure;Samples;Min_cycle;Max_cycle;Signal;HPM_P1;HPM_P2
2022/01/27 00:05:58;;;;;;;42.83;27.38;;;;;;;-4.11;91.44;97021.00;5010833;28;20053;-60
2022/01/27 00:08:31;;;;;;;42.38;27.17;;;;;;;-4.14;91.69;97017.66;5008911;28;20030;-59
2022/01/27 00:11:07;;;;;;;43.20;27.48;;;;;;;-4.13;91.27;97019.34;5010038;28;20034;-60
2022/01/27 00:13:43;;;;;;;46.72;27.13;;;;;;;-4.09;90.47;97028.72;5009483;28;20022;-59
2022/01/27 00:16:21;;;;;;;42.50;26.70;;;;;;;-3.90;89.03;97029.31;5008938;28;20022;-60
2022/01/27 00:18:49;;;;;;;49.55;30.52;;;;;;;-4.02;89.82;97027.75;5004601;28;20054;-59
2022/01/27 00:21:18;;;;;;;53.67;33.75;;;;;;;-4.03;90.47;97026.94;5010661;28;20025;-59
2022/01/27 00:23:45;;;;;;;61.38;37.88;;;;;;;-4.08;91.33;97022.72;5010102;28;20034;-57
2022/01/27 00:26:11;;;;;;;54.90;34.40;;;;;;;-4.14;91.08;97023.63;5010236;28;20076;-59
2022/01/27 00:28:37;;;;;;;63.17;41.25;;;;;;;-4.14;91.52;97027.94;5009994;28;20275;-59
2022/01/27 00:31:02;;;;;;;51.72;34.65;;;;;;;-4.03;90.74;97019.22;5009996;28;20160;-58
2022/01/27 00:33:28;;;;;;;50.92;34.45;;;;;;;-4.14;90.70;97015.91;5008736;28;20069;-59
2022/01/27 00:35:53;;;;;;;63.88;33.92;;;;;;;-4.34;92.77;97018.75;5010554;28;20030;-60
2022/01/27 00:38:19;;;;;;;49.85;32.17;;;;;;;-4.34;91.43;97017.00;4992681;28;20113;-60
2022/01/27 00:40:44;;;;;;;50.22;33.63;;;;;;;-4.44;93.04;97012.84;5009949;28;20017;-59
2022/01/27 00:43:10;;;;;;;49.13;32.08;;;;;;;-4.56;93.81;97015.53;5009318;28;20563;-58
2022/01/27 00:45:36;;;;;;;48.75;33.97;;;;;;;-4.60;93.46;97002.72;5010306;28;20050;-60
2022/01/27 00:48:04;;;;;;;50.60;33.90;;;;;;;-4.47;92.42;97002.59;5009933;28;20018;-58
2022/01/27 00:50:32;;;;;;;81.65;47.88;;;;;;;-4.15;91.50;97005.66;5009408;28;20037;-60
2022/01/27 00:53:00;;;;;;;68.63;44.00;;;;;;;-4.25;91.85;96998.03;5010369;28;20033;-58
2022/01/27 00:55:28;;;;;;;59.03;39.67;;;;;;;-4.09;93.37;96995.28;5009816;28;20037;-60
2022/01/27 00:58:08;;;;;;;67.55;43.17;;;;;;;-4.34;94.91;96981.00;5009960;28;20541;-59
2022/01/27 01:00:43;;;;;;;61.25;38.33;;;;;;;-4.31;94.45;96982.69;5009804;28;20037;-60
2022/01/27 01:03:14;;;;;;;56.55;38.05;;;;;;;-4.32;93.50;96989.53;5009746;28;20041;-59
2022/01/27 01:06:03;;;;;;;57.58;36.70;;;;;;;-4.38;93.89;96999.06;5008913;28;20049;-60
2022/01/27 01:14:29;;;;;;;54.75;37.35;;;;;;;-4.69;95.62;96994.25;5010758;28;20057;-59
2022/01/27 01:17:06;;;;;;;56.00;35.15;;;;;;;-4.61;94.70;97000.19;5009610;28;20030;-60
2022/01/27 01:30:07;;;;;;;51.70;35.15;;;;;;;-4.92;95.80;96998.78;5013136;28;20105;-59
2022/01/27 01:32:51;;;;;;;52.25;34.45;;;;;;;-4.95;96.20;97009.09;5013141;28;20053;-60
2022/01/27 01:35:26;;;;;;;47.33;32.28;;;;;;;-4.89;95.43;96997.88;5010748;28;20033;-59
2022/01/27 01:37:52;;;;;;;47.00;31.83;;;;;;;-4.90;95.29;97003.91;5012714;28;20446;-59
2022/01/27 01:40:18;;;;;;;52.55;35.00;;;;;;;-4.91;95.04;97010.78;5012802;28;20524;-60
2022/01/27 01:42:44;;;;;;;50.40;35.95;;;;;;;-4.94;94.77;97005.66;5013357;28;20030;-60
2022/01/27 01:45:13;;;;;;;50.30;36.38;;;;;;;-4.92;94.77;97003.06;5012422;28;20025;-60
2022/01/27 01:47:38;;;;;;;52.55;36.70;;;;;;;-4.93;94.27;96997.09;5011763;28;20030;-59
2022/01/27 01:50:06;;;;;;;47.33;34.25;;;;;;;-4.95;94.75;96998.81;5012493;28;20025;-59
2022/01/27 01:52:32;;;;;;;50.13;34.13;;;;;;;-5.00;93.91;96989.44;5012807;28;20050;-59
2022/01/27 01:54:58;;;;;;;56.30;35.53;;;;;;;-5.02;95.22;96986.88;5012444;28;20073;-59
2022/01/27 01:57:23;;;;;;;56.20;35.05;;;;;;;-5.02;96.18;96984.31;5012127;28;20041;-60
2022/01/27 01:59:49;;;;;;;50.75;34.58;;;;;;;-5.01;95.48;96982.63;5012724;28;20030;-60
2022/01/27 02:02:15;;;;;;;45.10;32.90;;;;;;;-5.04;95.76;96994.63;5012140;28;20486;-60
2022/01/27 02:04:42;;;;;;;47.88;32.47;;;;;;;-5.07;95.11;96988.66;5012098;28;20029;-60
2022/01/27 02:07:30;;;;;;;45.55;32.53;;;;;;;-5.06;94.55;96990.34;5012033;28;20615;-60
2022/01/27 02:18:28;;;;;;;44.50;30.80;;;;;;;-5.16;94.72;96986.19;4996928;28;20145;-56
2022/01/27 02:20:55;;;;;;;49.08;30.38;;;;;;;-5.12;94.38;96975.84;5011151;28;20062;-60
2022/01/27 02:23:20;;;;;;;43.70;32.00;;;;;;;-5.11;95.03;96979.28;5011954;28;20048;-58
2022/01/27 02:25:46;;;;;;;42.85;29.67;;;;;;;-5.14;93.65;96975.00;5011531;28;20118;-59
2022/01/27 02:28:11;;;;;;;38.60;27.77;;;;;;;-5.12;93.55;96969.88;5012174;28;20113;-59
2022/01/27 02:30:37;;;;;;;42.22;29.17;;;;;;;-5.20;95.13;96975.09;5011539;28;20370;-59
2022/01/27 02:33:03;;;;;;;44.15;31.38;;;;;;;-5.26;95.76;96975.97;5011446;28;20030;-58
2022/01/27 02:35:33;;;;;;;41.40;28.98;;;;;;;-5.25;95.65;96969.97;5011993;28;20505;-60
2022/01/27 02:37:58;;;;;;;40.47;26.67;;;;;;;-5.24;95.69;96976.81;5011540;28;20034;-60
2022/01/27 02:40:26;;;;;;;41.42;28.55;;;;;;;-5.24;94.80;96976.81;5011537;28;20026;-60
2022/01/27 02:42:53;;;;;;;38.92;27.17;;;;;;;-5.21;94.44;96976.78;5011771;28;20100;-59
2022/01/27 02:45:27;;;;;;;39.38;26.60;;;;;;;-5.20;94.35;96978.47;5011341;28;20560;-59
2022/01/27 02:47:52;;;;;;;34.30;25.52;;;;;;;-5.22;94.31;96980.22;5008116;28;20117;-60
2022/01/27 02:50:18;;;;;;;33.10;25.02;;;;;;;-5.23;94.32;96978.50;5011946;28;20113;-59
2022/01/27 02:52:44;;;;;;;38.22;27.25;;;;;;;-5.18;94.60;96976.78;5011220;28;20025;-59
2022/01/27 02:55:10;;;;;;;40.50;29.83;;;;;;;-5.12;96.21;96985.28;5011171;28;20469;-60
2022/01/27 02:57:36;;;;;;;41.08;30.23;;;;;;;-4.91;94.66;96977.38;5011140;28;20084;-60
2022/01/27 03:00:01;;;;;;;42.25;32.67;;;;;;;-4.95;95.14;96980.84;5012070;28;20429;-59
2022/01/27 03:02:27;;;;;;;44.97;31.90;;;;;;;-4.98;96.65;96988.56;5011715;28;20061;-60
2022/01/27 03:04:52;;;;;;;43.08;30.42;;;;;;;-4.99;96.58;96976.56;5011682;28;20072;-59
2022/01/27 03:07:18;;;;;;;43.60;31.67;;;;;;;-4.98;97.30;96985.97;5011542;28;20049;-59
2022/01/27 03:09:43;;;;;;;44.65;33.10;;;;;;;-4.94;98.05;96977.41;5011646;28;20133;-60
2022/01/27 03:12:11;;;;;;;43.13;33.70;;;;;;;-4.94;97.43;96981.69;5011413;28;20032;-59
2022/01/27 03:14:37;;;;;;;49.10;34.42;;;;;;;-4.94;97.85;96979.09;5011727;28;20060;-60
2022/01/27 03:17:05;;;;;;;42.70;31.95;;;;;;;-5.01;97.48;96986.03;5011244;28;20101;-59
2022/01/27 03:19:31;;;;;;;44.00;33.72;;;;;;;-5.06;99.10;96987.78;5011229;28;20029;-60
2022/01/27 03:21:57;;;;;;;40.72;31.40;;;;;;;-5.12;100.00;96980.97;5011742;28;20022;-59
2022/01/27 03:24:24;;;;;;;44.03;32.88;;;;;;;-5.13;99.19;96993.84;5010112;28;20037;-60
2022/01/27 03:26:51;;;;;;;49.20;33.90;;;;;;;-5.14;98.58;96992.16;5009326;28;20032;-60
2022/01/27 03:29:17;;;;;;;49.65;33.63;;;;;;;-5.20;97.88;96986.19;5011115;28;20113;-60
2022/01/27 03:31:44;;;;;;;48.78;34.33;;;;;;;-5.19;97.31;96984.47;5011389;28;20100;-59
2022/01/27 03:34:10;;;;;;;45.00;33.25;;;;;;;-5.21;97.71;96976.78;5011063;28;20091;-60
2022/01/27 03:36:36;;;;;;;50.55;33.35;;;;;;;-5.31;96.91;96972.59;5011203;28;20034;-60
2022/01/27 03:39:03;;;;;;;46.75;32.85;;;;;;;-5.37;97.75;96964.97;5011424;28;20021;-59
2022/01/27 03:41:32;;;;;;;46.35;33.75;;;;;;;-5.41;97.64;96965.88;5010305;28;20113;-60
2022/01/27 03:43:58;;;;;;;40.58;32.55;;;;;;;-5.43;97.84;96968.44;5010309;28;20018;-57
2022/01/27 03:46:23;;;;;;;40.95;31.27;;;;;;;-5.44;98.59;96968.44;5011367;28;20037;-59
2022/01/27 03:48:48;;;;;;;39.53;29.48;;;;;;;-5.48;98.53;96971.03;5010927;28;20018;-59
2022/01/27 03:51:14;;;;;;;41.42;31.48;;;;;;;-5.48;97.20;96973.59;5009925;28;20393;-59
2022/01/27 03:53:40;;;;;;;43.03;30.98;;;;;;;-5.27;97.04;96973.44;5010824;28;20022;-59
2022/01/27 03:56:05;;;;;;;53.85;34.22;;;;;;;-5.33;98.30;96979.47;5010952;28;20045;-59
2022/01/27 03:58:31;;;;;;;50.83;33.20;;;;;;;-5.37;98.06;96973.50;5010810;28;20105;-59
2022/01/27 04:00:56;;;;;;;59.90;34.53;;;;;;;-5.43;98.66;96965.88;5011257;28;20026;-59
2022/01/27 04:03:23;;;;;;;53.70;33.70;;;;;;;-5.53;100.00;96967.66;5010735;28;20040;-59
2022/01/27 04:05:52;;;;;;;49.60;33.70;;;;;;;-5.58;100.00;96964.28;5005912;28;20516;-59
2022/01/27 04:08:18;;;;;;;57.90;34.13;;;;;;;-5.60;100.00;96966.00;5010615;28;20038;-59
2022/01/27 04:10:43;;;;;;;54.95;33.70;;;;;;;-5.65;100.00;96967.72;5009990;28;20152;-57
2022/01/27 04:13:09;;;;;;;47.53;33.50;;;;;;;-5.63;100.00;96966.88;5010565;28;20030;-59
2022/01/27 04:15:36;;;;;;;51.63;34.42;;;;;;;-5.63;100.00;96973.72;5010842;28;20068;-60
2022/01/27 04:18:04;;;;;;;49.17;35.03;;;;;;;-5.59;100.00;96969.41;5010907;28;20586;-60
2022/01/27 04:20:29;;;;;;;50.55;35.25;;;;;;;-5.61;100.00;96974.56;5010790;28;20030;-59
2022/01/27 04:22:55;;;;;;;50.30;32.92;;;;;;;-5.50;100.00;96975.31;5010703;28;20029;-60
2022/01/27 04:25:20;;;;;;;45.42;33.05;;;;;;;-5.48;100.00;96972.75;5010488;28;20022;-60
2022/01/27 04:27:50;;;;;;;51.13;35.63;;;;;;;-5.51;100.00;96965.09;5010894;28;20030;-60
2022/01/27 04:30:20;;;;;;;50.47;34.17;;;;;;;-5.42;100.00;96976.97;5010392;28;20026;-60
2022/01/27 04:32:51;;;;;;;51.33;34.95;;;;;;;-5.56;100.00;96979.66;5010280;28;20471;-60
2022/01/27 04:35:19;;;;;;;51.63;35.10;;;;;;;-5.59;100.00;96977.97;5011059;28;20034;-60
2022/01/27 04:40:27;;;;;;;49.42;33.60;;;;;;;-5.54;100.00;96990.75;5011029;28;20065;-59
2022/01/27 04:46:24;;;;;;;47.47;33.80;;;;;;;-5.49;100.00;96995.00;5012880;28;20120;-60
2022/01/27 04:48:28;;;;;;;49.88;32.67;;;;;;;-5.61;100.00;96992.53;5010927;28;20038;-60
2022/01/27 04:50:57;;;;;;;47.95;32.80;;;;;;;-5.59;100.00;96990.81;5014592;28;20029;-59
2022/01/27 04:53:32;;;;;;;52.33;33.75;;;;;;;-5.63;100.00;96994.25;5014013;28;20405;-60
2022/01/27 04:55:59;;;;;;;45.33;33.08;;;;;;;-5.54;100.00;96994.19;5010573;28;20017;-60
2022/01/27 04:58:33;;;;;;;48.63;33.53;;;;;;;-5.61;100.00;96997.66;5013804;28;20030;-59
2022/01/27 05:01:01;;;;;;;50.58;34.40;;;;;;;-5.65;100.00;96993.41;5014061;28;20033;-59
2022/01/27 05:03:39;;;;;;;59.38;32.63;;;;;;;-5.64;100.00;96992.53;5013797;28;20031;-60
2022/01/27 05:06:04;;;;;;;65.63;35.92;;;;;;;-5.61;100.00;96995.09;5014196;28;20114;-60
2022/01/27 05:08:30;;;;;;;62.42;34.58;;;;;;;-5.72;100.00;96994.31;5013689;28;20130;-60
2022/01/27 05:11:09;;;;;;;59.30;33.78;;;;;;;-5.75;100.00;96990.03;5013577;28;20030;-59
2022/01/27 05:13:41;;;;;;;50.53;33.28;;;;;;;-5.70;100.00;96990.00;5013651;28;20026;-58
2022/01/27 05:16:06;;;;;;;51.33;32.25;;;;;;;-5.67;100.00;96982.28;5013634;28;20117;-60
2022/01/27 05:18:32;;;;;;;50.50;32.13;;;;;;;-5.65;100.00;96988.25;5011967;28;20129;-60
2022/01/27 05:20:58;;;;;;;46.00;32.70;;;;;;;-5.75;100.00;96985.78;5013226;28;20041;-60
2022/01/27 05:23:23;;;;;;;56.40;34.20;;;;;;;-5.68;100.00;96986.59;5013515;28;20030;-60
2022/01/27 05:25:48;;;;;;;53.17;34.80;;;;;;;-5.61;100.00;96987.41;5013509;28;20413;-60
2022/01/27 05:28:14;;;;;;;51.25;33.28;;;;;;;-5.66;100.00;96984.00;5013271;28;20101;-60
2022/01/27 05:30:42;;;;;;;50.05;33.05;;;;;;;-5.74;100.00;96984.06;5013130;28;20036;-60
2022/01/27 05:33:10;;;;;;;55.60;32.83;;;;;;;-5.67;100.00;96987.44;5013119;28;20068;-60
2022/01/27 05:35:36;;;;;;;46.42;30.30;;;;;;;-5.68;100.00;96986.59;5013768;28;20022;-60
2022/01/27 05:38:02;;;;;;;55.80;33.38;;;;;;;-5.69;100.00;96989.16;5013181;28;20149;-60
2022/01/27 05:40:28;;;;;;;65.88;40.10;;;;;;;-5.71;100.00;96996.88;5013510;28;20069;-60
2022/01/27 05:42:53;;;;;;;59.55;37.92;;;;;;;-5.71;100.00;96996.00;5012849;28;20109;-58
2022/01/27 05:45:19;;;;;;;57.50;33.70;;;;;;;-5.68;100.00;97001.13;5013014;28;20026;-60
2022/01/27 05:47:44;;;;;;;52.47;33.33;;;;;;;-5.69;100.00;97000.28;5012060;28;20022;-60
2022/01/27 05:50:10;;;;;;;59.03;35.55;;;;;;;-5.71;100.00;96994.31;5012790;28;20485;-59
2022/01/27 05:52:35;;;;;;;54.95;35.58;;;;;;;-5.68;100.00;96990.84;5013532;28;20560;-60
2022/01/27 05:55:01;;;;;;;62.42;36.83;;;;;;;-5.74;100.00;96991.78;5010385;28;20026;-60
2022/01/27 05:57:26;;;;;;;58.85;35.00;;;;;;;-5.71;100.00;96990.88;5013275;28;20034;-58
2022/01/27 05:59:51;;;;;;;63.17;35.28;;;;;;;-5.69;100.00;96999.41;5012632;28;20030;-59
2022/01/27 06:02:17;;;;;;;72.25;34.55;;;;;;;-5.63;100.00;96994.25;5012684;28;20030;-60
2022/01/27 06:04:42;;;;;;;60.05;35.38;;;;;;;-5.67;100.00;96990.84;5012814;28;20022;-60
2022/01/27 06:07:07;;;;;;;59.28;33.03;;;;;;;-5.63;100.00;96992.53;5011823;28;20125;-60
2022/01/27 06:09:33;;;;;;;55.03;32.97;;;;;;;-5.71;100.00;96996.00;5012528;28;20025;-60
2022/01/27 06:11:58;;;;;;;52.75;33.63;;;;;;;-5.70;100.00;96987.44;5012570;28;20064;-60
2022/01/27 06:14:24;;;;;;;55.03;34.65;;;;;;;-5.67;100.00;97006.25;5012525;28;20026;-60
2022/01/27 06:16:49;;;;;;;63.10;36.08;;;;;;;-5.80;100.00;97005.47;5012300;28;20129;-57
2022/01/27 06:19:15;;;;;;;67.38;36.35;;;;;;;-5.74;100.00;97004.59;5011442;28;20096;-60
2022/01/27 06:21:43;;;;;;;56.97;35.67;;;;;;;-5.73;100.00;97001.16;5010965;28;20034;-60
2022/01/27 06:24:08;;;;;;;60.75;36.85;;;;;;;-5.72;100.00;96997.75;5012244;28;20048;-60
2022/01/27 06:26:34;;;;;;;54.88;36.13;;;;;;;-5.70;100.00;96998.59;5012681;28;20572;-60
2022/01/27 06:28:59;;;;;;;56.88;36.83;;;;;;;-5.77;100.00;96987.50;5010769;28;20053;-61
2022/01/27 06:31:24;;;;;;;62.88;37.40;;;;;;;-5.67;100.00;96992.56;5010784;28;20741;-60
2022/01/27 06:33:52;;;;;;;59.97;37.75;;;;;;;-5.71;100.00;96986.63;5011022;28;20657;-60
2022/01/27 06:36:18;;;;;;;61.58;35.40;;;;;;;-5.70;100.00;96990.00;5012120;28;20021;-60
2022/01/27 06:38:44;;;;;;;68.43;39.42;;;;;;;-5.76;100.00;96993.47;5012008;28;20033;-59
2022/01/27 06:41:10;;;;;;;73.35;37.00;;;;;;;-5.65;100.00;96994.25;5011325;28;20144;-59
2022/01/27 06:43:35;;;;;;;60.50;36.97;;;;;;;-5.72;100.00;96994.31;5011674;28;20474;-60
2022/01/27 06:46:01;;;;;;;65.85;36.15;;;;;;;-5.59;100.00;96993.38;5011162;28;20033;-61
2022/01/27 06:48:26;;;;;;;69.90;36.72;;;;;;;-5.67;100.00;96998.56;5010939;28;20033;-60
2022/01/27 06:50:54;;;;;;;72.13;36.65;;;;;;;-5.74;100.00;97002.03;5009953;28;20034;-60
2022/01/27 06:53:21;;;;;;;60.85;37.10;;;;;;;-5.72;100.00;97012.28;5010519;28;20026;-61
2022/01/27 06:55:47;;;;;;;56.88;35.25;;;;;;;-5.73;100.00;97013.13;5011216;28;20684;-61
2022/01/27 06:58:12;;;;;;;55.22;36.42;;;;;;;-5.76;100.00;97004.59;5011598;28;20083;-61
2022/01/27 07:00:38;;;;;;;68.88;35.53;;;;;;;-5.81;100.00;97016.59;5009900;28;20494;-62
2022/01/27 07:03:03;;;;;;;70.15;40.92;;;;;;;-5.80;100.00;97017.44;5009613;28;20050;-63
2022/01/27 07:05:31;;;;;;;82.25;40.05;;;;;;;-5.79;100.00;97025.16;5008619;28;20034;-61
2022/01/27 07:07:56;;;;;;;87.15;38.85;;;;;;;-5.72;100.00;97025.97;5010588;28;20025;-64
2022/01/27 07:10:22;;;;;;;63.78;38.45;;;;;;;-5.70;100.00;97025.94;5011038;28;20076;-62
2022/01/27 07:12:47;;;;;;;66.85;38.78;;;;;;;-5.61;100.00;97028.47;5011511;28;20180;-52
2022/01/27 07:15:13;;;;;;;61.97;34.55;;;;;;;-5.59;100.00;97031.88;5011916;28;20028;-50
2022/01/27 07:17:38;;;;;;;62.20;36.22;;;;;;;-5.58;100.00;97036.13;5010778;28;20103;-55
2022/01/27 07:20:05;;;;;;;65.13;35.88;;;;;;;-5.61;100.00;97034.44;5011503;28;20505;-52
2022/01/27 07:22:34;;;;;;;73.13;39.42;;;;;;;-5.63;100.00;97041.28;5011107;28;20562;-51
2022/01/27 07:25:00;;;;;;;73.63;37.33;;;;;;;-5.58;100.00;97048.09;5009777;28;20032;-54
2022/01/27 07:27:26;;;;;;;72.55;37.63;;;;;;;-5.68;100.00;97044.75;5010163;28;20033;-52
2022/01/27 07:29:51;;;;;;;62.08;36.08;;;;;;;-5.77;100.00;97046.50;5010850;28;20026;-53
2022/01/27 07:32:17;;;;;;;71.82;39.10;;;;;;;-5.76;100.00;97039.66;5010431;28;20029;-52
2022/01/27 07:34:42;;;;;;;99.45;53.75;;;;;;;-5.82;100.00;97039.69;5011213;28;20022;-53
2022/01/27 07:37:07;;;;;;;96.50;53.35;;;;;;;-5.77;100.00;97041.38;5009660;28;20030;-51
2022/01/27 07:39:33;;;;;;;85.75;48.75;;;;;;;-5.77;100.00;97038.81;5008809;28;20552;-49
2022/01/27 07:42:00;;;;;;;81.63;43.33;;;;;;;-5.67;100.00;97041.31;5006091;28;20567;-54
2022/01/27 07:44:26;;;;;;;66.57;35.70;;;;;;;-5.65;100.00;97035.31;5009795;28;20048;-52
2022/01/27 07:46:52;;;;;;;83.47;38.42;;;;;;;-5.69;100.00;97032.78;5009716;28;20116;-54
2022/01/27 07:49:17;;;;;;;70.78;38.65;;;;;;;-5.67;100.00;97025.91;5009545;28;20929;-54
2022/01/27 07:51:42;;;;;;;74.03;34.95;;;;;;;-5.72;100.00;97025.09;5007156;28;20115;-51
2022/01/27 07:54:08;;;;;;;69.20;34.58;;;;;;;-5.85;100.00;97025.19;5009295;28;20032;-51
2022/01/27 07:56:33;;;;;;;68.32;36.22;;;;;;;-5.79;100.00;97022.59;5008239;28;20466;-52
2022/01/27 07:58:59;;;;;;;69.85;37.45;;;;;;;-5.79;100.00;97019.16;5008912;28;20034;-52
2022/01/27 08:01:24;;;;;;;71.57;35.92;;;;;;;-5.81;100.00;97019.19;5009180;28;20053;-53
2022/01/27 08:03:50;;;;;;;65.10;38.10;;;;;;;-5.76;100.00;97024.25;5003893;28;20109;-50
2022/01/27 08:06:16;;;;;;;69.13;39.22;;;;;;;-5.70;100.00;97031.94;5009051;28;20440;-52
2022/01/27 08:08:43;;;;;;;71.10;35.97;;;;;;;-5.67;100.00;97031.03;5008503;28;20034;-50
2022/01/27 08:11:09;;;;;;;70.22;36.75;;;;;;;-5.66;100.00;97043.00;5010048;28;20026;-51
2022/01/27 08:13:36;;;;;;;56.53;35.58;;;;;;;-5.48;100.00;97048.03;5006744;28;20513;-52
2022/01/27 08:16:02;;;;;;;67.72;32.75;;;;;;;-5.50;100.00;97051.50;5008467;28;20589;-50
2022/01/27 08:18:28;;;;;;;94.28;38.13;;;;;;;-5.57;100.00;97047.25;5010585;28;20037;-49
2022/01/27 08:20:53;;;;;;;67.70;35.33;;;;;;;-5.55;100.00;97059.22;5013129;28;20493;-49
2022/01/27 08:23:20;;;;;;;93.15;36.40;;;;;;;-5.53;100.00;97060.06;5009823;28;20029;-51
2022/01/27 08:25:49;;;;;;;57.15;34.75;;;;;;;-5.50;100.00;97069.47;5013442;28;20037;-49
2022/01/27 08:28:33;;;;;;;67.03;36.15;;;;;;;-5.44;100.00;97071.09;5012556;28;20108;-49
2022/01/27 08:30:59;;;;;;;72.50;37.35;;;;;;;-5.47;100.00;97077.13;5014622;28;20112;-50
2022/01/27 08:33:29;;;;;;;75.90;37.22;;;;;;;-5.56;100.00;97079.75;5011745;28;20475;-48
2022/01/27 08:35:55;;;;;;;60.85;37.95;;;;;;;-5.43;100.00;97073.69;5013767;28;20034;-50
2022/01/27 08:38:20;;;;;;;53.70;35.45;;;;;;;-5.25;100.00;97075.25;5013816;28;20084;-51
2022/01/27 08:40:46;;;;;;;59.60;35.90;;;;;;;-5.27;100.00;97073.59;5014294;28;20478;-50
2022/01/27 08:43:11;;;;;;;69.93;37.17;;;;;;;-5.12;100.00;97077.75;5013194;28;20481;-52
2022/01/27 08:45:39;;;;;;;77.20;39.70;;;;;;;-5.21;100.00;97069.22;5010589;28;20065;-50
2022/01/27 08:48:06;;;;;;;76.28;45.33;;;;;;;-5.20;100.00;97064.97;5013680;28;20022;-51
2022/01/27 08:50:32;;;;;;;82.22;39.35;;;;;;;-5.26;100.00;97063.28;5014211;28;20551;-52
2022/01/27 08:52:58;;;;;;;76.78;42.67;;;;;;;-5.28;100.00;97059.03;5013120;28;20062;-50
2022/01/27 08:55:23;;;;;;;87.97;41.45;;;;;;;-5.30;100.00;97060.78;5012260;28;20508;-51
2022/01/27 08:57:50;;;;;;;83.22;40.70;;;;;;;-5.33;100.00;97059.91;5012047;28;20025;-50
2022/01/27 09:00:19;;;;;;;91.38;43.50;;;;;;;-5.35;100.00;97063.38;5013766;28;20570;-50
2022/01/27 09:02:45;;;;;;;99.28;47.40;;;;;;;-5.39;100.00;97051.41;5012508;28;20042;-51
2022/01/27 09:05:10;;;;;;;69.97;42.35;;;;;;;-5.38;100.00;97053.97;5013578;28;20033;-50
2022/01/27 09:07:36;;;;;;;72.60;43.40;;;;;;;-5.51;100.00;97054.91;5005684;28;20085;-50
2022/01/27 09:10:03;;;;;;;83.75;42.53;;;;;;;-5.37;100.00;97058.22;5011975;28;20032;-49
2022/01/27 09:12:29;;;;;;;78.55;42.00;;;;;;;-5.20;100.00;97054.69;5011260;28;20096;-50
2022/01/27 09:14:54;;;;;;;87.13;44.78;;;;;;;-4.94;100.00;97061.31;5012271;28;20568;-51
2022/01/27 09:17:25;;;;;;;79.45;41.88;;;;;;;-4.81;100.00;97059.50;5012103;28;20064;-51
2022/01/27 09:19:50;;;;;;;83.35;43.38;;;;;;;-4.67;100.00;97059.34;5013635;28;20033;-51
2022/01/27 09:22:18;;;;;;;85.45;45.95;;;;;;;-4.52;100.00;97056.63;5012908;28;20025;-50
2022/01/27 09:24:54;;;;;;;74.15;43.88;;;;;;;-4.47;100.00;97048.88;5013225;28;20038;-49
2022/01/27 09:27:21;;;;;;;66.78;39.15;;;;;;;-4.26;100.00;97050.34;5012404;28;20073;-50
2022/01/27 09:29:47;;;;;;;69.13;42.65;;;;;;;-4.29;100.00;97044.41;5011808;28;20539;-51
2022/01/27 09:32:18;;;;;;;85.15;45.83;;;;;;;-4.01;100.00;97038.91;5008617;28;20025;-54
2022/01/27 09:34:44;;;;;;;72.57;40.78;;;;;;;-3.87;100.00;97039.56;5012600;28;20496;-51
2022/01/27 09:37:10;;;;;;;74.80;44.10;;;;;;;-3.66;100.00;97038.44;5012078;28;20076;-49
2022/01/27 09:39:36;;;;;;;73.80;40.55;;;;;;;-3.77;100.00;97038.59;5013241;28;20498;-50
2022/01/27 09:42:04;;;;;;;59.95;38.95;;;;;;;-3.63;100.00;97035.81;5012661;28;20064;-50
2022/01/27 09:44:32;;;;;;;64.05;40.28;;;;;;;-3.57;100.00;97037.47;5011434;28;20117;-50
2022/01/27 09:47:11;;;;;;;61.95;39.80;;;;;;;-3.43;100.00;97036.41;5011624;28;20022;-50
2022/01/27 09:49:42;;;;;;;70.40;42.15;;;;;;;-3.22;99.90;97041.22;5011277;28;20057;-49
2022/01/27 09:52:08;;;;;;;58.78;36.78;;;;;;;-2.84;98.15;97045.78;5011103;28;20038;-50
2022/01/27 09:54:35;;;;;;;57.35;38.00;;;;;;;-2.47;97.86;97047.69;5010916;28;20038;-50
2022/01/27 09:57:02;;;;;;;59.08;38.30;;;;;;;-2.49;94.63;97052.03;5012502;28;20029;-54
2022/01/27 09:59:28;;;;;;;66.82;38.97;;;;;;;-2.43;93.81;97051.91;5012369;28;20088;-50
2022/01/27 10:02:02;;;;;;;64.13;40.53;;;;;;;-2.06;94.10;97053.78;5012243;28;20034;-55
2022/01/27 10:04:51;;;;;;;59.92;38.25;;;;;;;-1.60;93.35;97054.53;5011156;28;20032;-50
2022/01/27 10:07:20;;;;;;;78.40;48.38;;;;;;;-1.21;92.39;97058.88;5000500;28;20721;-50
2022/01/27 10:09:58;;;;;;;59.33;37.33;;;;;;;-1.08;89.87;97063.72;5012159;28;20032;-50
2022/01/27 10:12:39;;;;;;;59.83;39.92;;;;;;;-1.13;88.34;97068.16;5011692;28;20066;-51
2022/01/27 10:15:18;;;;;;;51.90;36.30;;;;;;;-1.29;87.42;97068.50;5011128;28;20498;-52
2022/01/27 10:18:15;;;;;;;50.53;33.45;;;;;;;-1.12;87.88;97075.03;5012111;28;20187;-50
2022/01/27 10:20:52;;;;;;;46.30;32.60;;;;;;;-1.19;88.35;97071.72;5012046;28;20401;-49
2022/01/27 10:23:22;;;;;;;53.13;36.80;;;;;;;-0.99;88.60;97067.81;5010489;28;20048;-49
2022/01/27 10:25:56;;;;;;;56.28;37.75;;;;;;;-1.04;88.35;97071.38;5011830;28;20034;-51
2022/01/27 10:28:47;;;;;;;58.30;38.55;;;;;;;-1.03;87.89;97072.22;5011437;28;20037;-50
2022/01/27 10:31:23;;;;;;;54.97;37.90;;;;;;;-0.70;86.94;97066.25;5006554;28;20036;-49
2022/01/27 10:33:55;;;;;;;56.45;38.17;;;;;;;-0.76;86.76;97054.34;5008009;28;20489;-53
2022/01/27 10:36:43;;;;;;;51.95;35.67;;;;;;;-0.50;85.89;97055.41;5011460;28;20379;-50
2022/01/27 10:39:20;;;;;;;43.85;32.63;;;;;;;-0.31;83.17;97048.00;5009830;28;20044;-49
2022/01/27 10:42:08;;;;;;;49.35;34.22;;;;;;;-0.16;84.17;97052.75;5011060;28;20113;-48
2022/01/27 10:44:38;;;;;;;44.90;32.85;;;;;;;0.11;84.05;97031.28;5009498;28;20520;-49
2022/01/27 10:47:18;;;;;;;39.38;28.23;;;;;;;0.34;80.68;97037.56;5008567;28;20026;-49
2022/01/27 10:49:49;;;;;;;44.45;31.58;;;;;;;0.51;80.40;97043.06;5010930;28;20539;-50
2022/01/27 10:52:39;;;;;;;47.50;31.90;;;;;;;1.08;79.16;97039.56;4998483;28;20436;-54
2022/01/27 10:55:17;;;;;;;58.08;37.67;;;;;;;1.17;80.02;97034.09;5002420;28;20019;-46
2022/01/27 10:57:49;;;;;;;53.63;35.90;;;;;;;1.19;81.51;97024.50;5010694;28;20041;-47
2022/01/27 11:00:20;;;;;;;52.60;33.50;;;;;;;1.53;80.74;97023.34;5010076;28;20029;-50
2022/01/27 11:03:01;;;;;;;56.53;35.95;;;;;;;1.26;79.67;97022.56;5010153;28;20485;-52
2022/01/27 11:05:29;;;;;;;60.75;38.35;;;;;;;1.12;81.14;97016.09;5008234;28;20026;-53
2022/01/27 11:07:56;;;;;;;58.92;38.28;;;;;;;1.21;80.34;97011.47;5008542;28;20030;-49
2022/01/27 11:10:22;;;;;;;62.95;38.22;;;;;;;1.25;81.64;97013.09;5010255;28;20413;-51
2022/01/27 11:12:49;;;;;;;52.40;34.33;;;;;;;1.37;81.56;97012.66;5010872;28;20034;-53
2022/01/27 11:15:18;;;;;;;38.17;24.60;;;;;;;1.64;80.86;97007.41;5008156;28;20497;-51
2022/01/27 11:17:47;;;;;;;34.88;25.13;;;;;;;1.83;79.11;97005.00;5007758;28;20116;-53
2022/01/27 11:28:02;;;;;;;35.80;26.85;;;;;;;1.64;77.92;96985.78;5010314;28;20037;-52
2022/01/27 11:30:42;;;;;;;32.08;26.00;;;;;;;1.89;77.37;96977.97;5011284;28;20038;-51
2022/01/27 11:33:10;;;;;;;38.72;26.23;;;;;;;2.29;76.37;96981.63;5010022;28;20045;-51
2022/01/27 11:35:36;;;;;;;59.60;38.47;;;;;;;2.46;76.04;96979.31;5010551;28;20025;-51
2022/01/27 11:38:04;;;;;;;61.40;38.33;;;;;;;2.29;76.79;96970.41;5010533;28;20026;-56
2022/01/27 11:40:37;;;;;;;51.17;29.92;;;;;;;2.35;76.56;96970.16;5006432;28;20148;-54
2022/01/27 11:43:12;;;;;;;58.45;38.38;;;;;;;1.74;78.53;96970.72;5009017;28;20030;-53
2022/01/27 11:45:43;;;;;;;56.10;36.37;;;;;;;2.11;74.54;96966.78;5009484;28;20548;-53
2022/01/27 11:48:14;;;;;;;66.15;37.53;;;;;;;1.89;75.82;96964.97;5008602;28;20030;-52
2022/01/27 11:51:13;;;;;;;54.30;35.85;;;;;;;2.09;75.57;96965.97;5007030;28;20025;-53
2022/01/27 11:53:50;;;;;;;51.67;32.50;;;;;;;2.10;74.09;96965.91;5009503;28;20037;-49
2022/01/27 11:56:28;;;;;;;60.88;36.55;;;;;;;2.00;74.32;96965.41;5009762;28;20026;-51
2022/01/27 11:58:55;;;;;;;54.88;34.50;;;;;;;1.81;76.13;96960.06;5009536;28;20105;-51
2022/01/27 12:01:56;;;;;;;61.15;39.40;;;;;;;1.87;75.60;96956.38;5008606;28;20037;-53
2022/01/27 12:04:25;;;;;;;63.33;38.05;;;;;;;2.26;76.34;96958.38;5007788;28;20026;-54